createdAt,value
2022-08-21T00:00:43.902Z,24.30
2022-08-21T00:03:17.533Z,20.90
2022-08-21T00:05:53.014Z,19.30
2022-08-21T00:08:25.973Z,22.40
2022-08-21T00:10:58.753Z,20.80
2022-08-21T00:13:31.949Z,24.30
2022-08-21T00:16:06.591Z,23.10
2022-08-21T00:18:39.563Z,22.50
2022-08-21T00:21:13.343Z,24.70
2022-08-21T00:23:46.585Z,21.70
2022-08-21T00:26:19.641Z,25.40
2022-08-21T00:28:52.474Z,28.00
2022-08-21T00:31:25.213Z,27.40
2022-08-21T00:34:00.833Z,23.40
2022-08-21T00:36:34.570Z,25.20
2022-08-21T00:39:09.081Z,25.60
2022-08-21T00:41:43.399Z,27.50
2022-08-21T00:44:18.031Z,23.30
2022-08-21T00:46:51.116Z,16.40
2022-08-21T00:49:24.088Z,22.40
2022-08-21T00:52:00.301Z,25.70
2022-08-21T00:54:35.710Z,23.80
2022-08-21T00:57:15.456Z,21.60
2022-08-21T00:59:54.605Z,20.70
2022-08-21T01:02:27.862Z,17.20
2022-08-21T01:05:00.765Z,22.20
2022-08-21T01:07:33.957Z,27.10
2022-08-21T01:10:08.992Z,22.10
2022-08-21T01:12:49.565Z,26.10
2022-08-21T01:15:24.182Z,16.60
2022-08-21T01:17:57.263Z,16.10
2022-08-21T01:20:32.189Z,14.90
2022-08-21T01:23:07.772Z,17.90
2022-08-21T01:25:41.097Z,14.30
2022-08-21T01:28:17.257Z,16.90
2022-08-21T01:30:50.966Z,14.40
2022-08-21T01:33:26.992Z,11.30
2022-08-21T01:35:59.855Z,14.20
2022-08-21T01:38:33.760Z,14.80
2022-08-21T01:41:06.860Z,11.30
2022-08-21T01:43:39.985Z,12.00
2022-08-21T01:46:14.220Z,13.50
2022-08-21T01:48:47.484Z,14.70
2022-08-21T01:51:21.165Z,10.10
2022-08-21T01:53:54.034Z,11.80
2022-08-21T01:56:27.275Z,9.80
2022-08-21T01:59:00.110Z,10.50
2022-08-21T02:01:33.104Z,11.20
2022-08-21T02:04:06.402Z,11.90
2022-08-21T02:06:40.016Z,14.00
2022-08-21T02:09:14.587Z,9.60
2022-08-21T02:11:47.603Z,9.00
2022-08-21T02:14:31.993Z,9.80
2022-08-21T02:17:09.795Z,9.70
2022-08-21T02:19:43.354Z,9.00
2022-08-21T02:22:16.338Z,6.10
2022-08-21T02:24:54.801Z,8.40
2022-08-21T02:27:29.243Z,5.80
2022-08-21T02:30:02.831Z,6.20
2022-08-21T02:32:35.575Z,7.40
2022-08-21T02:35:10.602Z,7.80
2022-08-21T02:37:51.676Z,5.30
2022-08-21T02:40:28.212Z,6.80
2022-08-21T02:43:01.702Z,4.60
2022-08-21T02:45:35.353Z,6.20
2022-08-21T02:48:11.664Z,4.50
2022-08-21T02:50:48.182Z,3.60
2022-08-21T02:53:22.031Z,4.60
2022-08-21T02:55:56.726Z,4.20
2022-08-21T02:58:32.510Z,5.80
2022-08-21T03:01:06.954Z,3.80
2022-08-21T03:03:42.049Z,5.80
2022-08-21T03:06:17.594Z,3.60
2022-08-21T03:08:51.896Z,4.80
2022-08-21T03:11:25.080Z,3.80
2022-08-21T03:13:57.986Z,3.20
2022-08-21T03:16:34.734Z,2.80
2022-08-21T03:19:08.355Z,2.60
2022-08-21T03:21:41.250Z,3.20
2022-08-21T03:24:14.066Z,2.80
2022-08-21T03:26:47.092Z,3.00
2022-08-21T03:29:20.388Z,3.20
2022-08-21T03:31:53.677Z,5.10
2022-08-21T03:34:26.460Z,2.90
2022-08-21T03:36:59.418Z,3.70
2022-08-21T03:39:32.306Z,3.90
2022-08-21T03:42:06.065Z,3.60
2022-08-21T03:44:38.816Z,5.50
2022-08-21T03:47:12.182Z,3.50
2022-08-21T03:49:45.216Z,5.10
2022-08-21T03:52:18.488Z,3.80
2022-08-21T03:54:51.606Z,3.90
2022-08-21T03:57:24.548Z,3.90
2022-08-21T03:59:57.510Z,5.00
2022-08-21T04:02:30.649Z,5.80
2022-08-21T04:05:03.426Z,4.40
2022-08-21T04:07:36.724Z,4.60
2022-08-21T04:10:12.001Z,5.30
2022-08-21T04:12:44.914Z,3.80
2022-08-21T04:15:17.628Z,4.90
2022-08-21T04:17:50.882Z,3.60
2022-08-21T04:20:26.134Z,4.10
2022-08-21T04:22:59.229Z,3.40
2022-08-21T04:25:33.074Z,4.20
2022-08-21T04:28:06.754Z,5.50
2022-08-21T04:30:40.437Z,4.20
2022-08-21T04:33:13.286Z,5.30
2022-08-21T04:35:46.243Z,4.90
2022-08-21T04:38:19.540Z,4.40
2022-08-21T04:40:52.830Z,4.60
2022-08-21T04:43:26.406Z,3.90
2022-08-21T04:45:59.723Z,3.40
2022-08-21T04:48:32.594Z,3.60
2022-08-21T04:51:10.146Z,4.70
2022-08-21T04:53:46.121Z,3.90
2022-08-21T04:56:23.374Z,3.40
2022-08-21T04:58:59.496Z,3.40
2022-08-21T05:01:35.354Z,4.10
2022-08-21T05:04:12.330Z,3.30
2022-08-21T05:06:48.885Z,2.90
2022-08-21T05:09:25.703Z,3.30
2022-08-21T05:11:58.903Z,3.50
2022-08-21T05:14:31.927Z,4.20
2022-08-21T05:17:05.556Z,5.10
2022-08-21T05:19:38.655Z,4.40
2022-08-21T05:22:11.654Z,4.30
2022-08-21T05:24:44.647Z,3.20
2022-08-21T05:27:17.916Z,3.60
2022-08-21T05:29:50.852Z,3.60
2022-08-21T05:32:23.578Z,4.30
2022-08-21T05:34:57.006Z,3.30
2022-08-21T05:37:29.873Z,14.80
2022-08-21T05:40:20.449Z,4.10
2022-08-21T05:42:57.923Z,3.50
2022-08-21T05:45:43.252Z,2.50
2022-08-21T05:48:20.834Z,2.50
2022-08-21T05:50:55.425Z,2.90
2022-08-21T05:53:28.847Z,3.00
2022-08-21T05:56:01.730Z,3.80
2022-08-21T05:58:35.785Z,6.20
2022-08-21T06:01:10.169Z,4.30
2022-08-21T06:03:44.320Z,5.40
2022-08-21T06:06:17.164Z,3.20
2022-08-21T06:08:50.071Z,2.60
2022-08-21T06:11:25.829Z,2.80
2022-08-21T06:14:02.278Z,5.10
2022-08-21T06:16:35.125Z,3.20
2022-08-21T06:19:08.091Z,2.80
2022-08-21T06:21:41.125Z,3.90
2022-08-21T06:24:14.208Z,4.60
2022-08-21T06:26:47.769Z,4.10
2022-08-21T06:29:21.206Z,4.90
2022-08-21T06:31:55.102Z,3.50
2022-08-21T06:34:28.590Z,5.40
2022-08-21T06:37:01.684Z,3.60
2022-08-21T06:39:34.910Z,4.00
2022-08-21T06:42:10.236Z,3.70
2022-08-21T06:44:44.294Z,2.90
2022-08-21T06:47:17.594Z,4.50
2022-08-21T06:49:50.429Z,10.00
2022-08-21T06:52:23.232Z,6.00
2022-08-21T06:54:56.003Z,3.90
2022-08-21T06:57:29.198Z,7.80
2022-08-21T07:00:02.188Z,3.00
2022-08-21T07:02:35.490Z,18.00
2022-08-21T07:05:18.159Z,17.50
2022-08-21T07:07:51.266Z,6.60
2022-08-21T07:10:24.356Z,8.20
2022-08-21T07:13:00.146Z,8.30
2022-08-21T07:15:34.878Z,7.70
2022-08-21T07:18:08.336Z,10.30
2022-08-21T07:20:41.540Z,5.80
2022-08-21T07:23:24.547Z,6.90
2022-08-21T07:25:57.947Z,6.40
2022-08-21T07:28:31.454Z,6.90
2022-08-21T07:31:06.240Z,5.20
2022-08-21T07:33:39.986Z,6.60
2022-08-21T07:36:14.104Z,13.90
2022-08-21T07:38:47.297Z,5.00
2022-08-21T07:41:23.053Z,5.70
2022-08-21T07:43:56.751Z,4.20
2022-08-21T07:46:30.166Z,8.60
2022-08-21T07:49:03.840Z,4.80
2022-08-21T07:51:36.994Z,9.30
2022-08-21T07:54:09.912Z,8.00
2022-08-21T07:56:50.206Z,5.40
2022-08-21T07:59:23.522Z,10.60
2022-08-21T08:01:56.448Z,5.90
2022-08-21T08:04:29.410Z,7.50
2022-08-21T08:07:02.444Z,7.20
2022-08-21T08:09:35.513Z,6.90
2022-08-21T08:12:09.978Z,7.60
2022-08-21T08:14:42.837Z,7.00
2022-08-21T08:17:15.832Z,6.60
2022-08-21T08:19:49.721Z,5.40
2022-08-21T08:22:25.910Z,4.90
2022-08-21T08:24:59.225Z,6.80
2022-08-21T08:27:32.154Z,6.90
2022-08-21T08:30:05.382Z,6.00
2022-08-21T08:32:38.228Z,5.10
2022-08-21T08:35:13.508Z,7.00
2022-08-21T08:37:52.622Z,5.20
2022-08-21T08:40:35.290Z,6.60
2022-08-21T08:43:08.446Z,4.70
2022-08-21T08:45:45.584Z,5.20
2022-08-21T08:48:34.421Z,5.60
2022-08-21T08:51:13.119Z,3.80
2022-08-21T08:53:54.752Z,3.30
2022-08-21T08:56:35.640Z,5.70
2022-08-21T08:59:18.112Z,4.30
2022-08-21T09:01:52.714Z,3.90
2022-08-21T09:04:30.606Z,3.10
2022-08-21T09:07:18.502Z,4.70
2022-08-21T09:10:08.836Z,3.20
2022-08-21T09:12:55.135Z,3.10
2022-08-21T09:15:39.184Z,5.40
2022-08-21T09:18:32.153Z,3.80
2022-08-21T09:21:18.636Z,4.00
2022-08-21T09:24:06.326Z,3.50
2022-08-21T09:26:52.282Z,3.40
2022-08-21T09:29:31.142Z,2.80
2022-08-21T09:32:04.558Z,3.20
2022-08-21T09:34:37.385Z,3.90
2022-08-21T09:37:20.795Z,3.50
2022-08-21T09:39:53.774Z,4.00
2022-08-21T09:42:34.004Z,4.00
2022-08-21T09:45:16.515Z,3.00
2022-08-21T09:47:49.402Z,2.90
2022-08-21T09:50:26.027Z,3.20
2022-08-21T09:53:03.572Z,3.00
2022-08-21T09:56:07.431Z,6.50
2022-08-21T09:58:45.988Z,2.70
2022-08-21T10:01:23.070Z,8.70
2022-08-21T10:04:10.509Z,3.30
2022-08-21T10:06:43.715Z,3.80
2022-08-21T10:09:22.029Z,3.90
2022-08-21T10:12:12.960Z,2.90
2022-08-21T10:15:07.846Z,5.00
2022-08-21T10:17:52.872Z,3.50
2022-08-21T10:20:38.916Z,2.90
2022-08-21T10:23:36.445Z,3.80
2022-08-21T10:26:20.071Z,5.30
2022-08-21T10:29:00.261Z,4.70
2022-08-21T10:31:39.886Z,3.50
2022-08-21T10:34:30.670Z,7.20
2022-08-21T10:37:20.167Z,4.10
2022-08-21T10:40:06.486Z,21.30
2022-08-21T10:42:54.649Z,5.90
2022-08-21T10:45:44.411Z,4.50
2022-08-21T10:48:29.333Z,4.00
2022-08-21T10:51:18.147Z,4.80
2022-08-21T10:54:05.127Z,6.00
2022-08-21T10:56:44.122Z,3.40
2022-08-21T10:59:33.320Z,4.20
2022-08-21T11:02:19.347Z,3.70
2022-08-21T11:05:02.582Z,3.10
2022-08-21T11:07:38.840Z,5.30
2022-08-21T11:10:22.078Z,7.30
2022-08-21T11:13:03.390Z,4.50
2022-08-21T11:15:46.511Z,5.30
2022-08-21T11:18:30.822Z,4.30
2022-08-21T11:21:18.330Z,4.80
2022-08-21T11:24:00.520Z,6.20
2022-08-21T11:26:41.314Z,4.80
2022-08-21T11:29:22.402Z,7.40
2022-08-21T11:32:15.317Z,5.60
2022-08-21T11:35:03.305Z,9.20
2022-08-21T11:37:52.925Z,4.80
2022-08-21T11:40:42.486Z,7.00
2022-08-21T11:43:24.294Z,5.70
2022-08-21T11:46:11.844Z,6.10
2022-08-21T11:48:54.829Z,6.70
2022-08-21T11:51:39.208Z,5.20
2022-08-21T11:54:25.622Z,7.20
2022-08-21T11:57:03.799Z,6.80
2022-08-21T11:59:43.250Z,6.10
2022-08-21T12:02:22.081Z,7.10
2022-08-21T12:04:58.973Z,4.60
2022-08-21T12:07:40.076Z,4.70
2022-08-21T12:10:16.947Z,5.70
2022-08-21T12:12:50.622Z,4.60
2022-08-21T12:15:31.389Z,4.90
2022-08-21T12:18:07.508Z,5.90
2022-08-21T12:21:01.620Z,5.80
2022-08-21T12:23:46.370Z,4.70
2022-08-21T12:26:34.901Z,6.90
2022-08-21T12:29:28.980Z,5.10
2022-08-21T12:32:06.814Z,5.70
2022-08-21T12:34:45.022Z,6.60
2022-08-21T12:37:27.208Z,5.90
2022-08-21T12:40:04.089Z,7.40
2022-08-21T12:42:53.051Z,5.80
2022-08-21T12:45:36.122Z,7.70
2022-08-21T12:48:16.580Z,8.30
2022-08-21T12:50:57.686Z,7.50
2022-08-21T12:53:37.471Z,6.90
2022-08-21T12:56:15.406Z,5.80
2022-08-21T12:58:53.425Z,4.40
2022-08-21T13:01:38.206Z,3.80
2022-08-21T13:04:21.420Z,7.30
2022-08-21T13:06:58.340Z,7.00
2022-08-21T13:09:33.698Z,6.50
2022-08-21T13:12:11.628Z,3.80
2022-08-21T13:14:48.814Z,5.30
2022-08-21T13:17:26.021Z,8.20
2022-08-21T13:20:07.204Z,8.60
2022-08-21T13:22:46.741Z,10.10
2022-08-21T13:25:23.018Z,7.30
2022-08-21T13:28:08.175Z,4.70
2022-08-21T13:30:46.529Z,9.90
2022-08-21T13:33:22.646Z,8.60
2022-08-21T13:36:11.638Z,5.70
2022-08-21T13:38:47.629Z,6.40
2022-08-21T13:41:27.366Z,10.10
2022-08-21T13:44:07.670Z,11.40
2022-08-21T13:46:41.506Z,9.40
2022-08-21T13:49:16.906Z,5.30
2022-08-21T13:51:51.934Z,8.70
2022-08-21T13:54:31.967Z,7.50
2022-08-21T13:57:05.542Z,8.40
2022-08-21T13:59:39.573Z,5.90
2022-08-21T14:02:20.035Z,6.80
2022-08-21T14:05:04.920Z,5.30
2022-08-21T14:07:43.497Z,8.30
2022-08-21T14:10:22.318Z,8.20
2022-08-21T14:13:00.271Z,6.30
2022-08-21T14:15:36.428Z,6.50
2022-08-21T14:18:20.994Z,5.30
2022-08-21T14:20:54.046Z,5.80
2022-08-21T14:23:33.266Z,9.40
2022-08-21T14:26:09.274Z,7.20
2022-08-21T14:28:44.425Z,6.30
2022-08-21T14:31:23.734Z,8.20
2022-08-21T14:33:57.098Z,6.80
2022-08-21T14:36:29.975Z,8.90
2022-08-21T14:39:02.776Z,8.10
2022-08-21T14:41:35.644Z,9.70
2022-08-21T14:44:10.140Z,9.60
2022-08-21T14:46:55.291Z,5.30
2022-08-21T14:49:31.873Z,5.60
2022-08-21T14:52:04.916Z,6.60
2022-08-21T14:54:38.108Z,6.40
2022-08-21T14:57:14.226Z,6.60
2022-08-21T14:59:47.150Z,6.70
2022-08-21T15:02:19.835Z,5.70
2022-08-21T15:04:52.631Z,5.90
2022-08-21T15:07:25.476Z,5.30
2022-08-21T15:09:58.255Z,6.20
2022-08-21T15:12:31.287Z,12.50
2022-08-21T15:15:04.314Z,11.20
2022-08-21T15:17:37.871Z,5.30
2022-08-21T15:20:15.109Z,6.50
2022-08-21T15:22:48.618Z,5.00
2022-08-21T15:25:23.727Z,5.60
2022-08-21T15:27:56.952Z,5.90
2022-08-21T15:30:30.486Z,5.70
2022-08-21T15:33:03.535Z,5.50
2022-08-21T15:35:37.121Z,8.00
2022-08-21T15:38:14.358Z,5.90
2022-08-21T15:40:52.070Z,6.10
2022-08-21T15:43:32.088Z,6.10
2022-08-21T15:46:06.934Z,5.90
2022-08-21T15:48:39.699Z,5.50
2022-08-21T15:51:13.208Z,5.60
2022-08-21T15:53:47.540Z,7.30
2022-08-21T15:56:27.068Z,6.50
2022-08-21T15:59:06.687Z,7.00
2022-08-21T16:01:44.982Z,5.20
2022-08-21T16:04:29.580Z,6.70
2022-08-21T16:07:06.630Z,10.30
2022-08-21T16:09:43.415Z,6.80
2022-08-21T16:12:33.396Z,7.10
2022-08-21T16:15:12.077Z,5.90
2022-08-21T16:17:55.904Z,9.20
2022-08-21T16:20:31.956Z,7.80
2022-08-21T16:23:05.114Z,7.40
2022-08-21T16:25:40.684Z,6.90
2022-08-21T16:28:17.713Z,6.40
2022-08-21T16:30:53.489Z,7.10
2022-08-21T16:33:34.804Z,4.80
2022-08-21T16:36:12.743Z,4.80
2022-08-21T16:38:48.573Z,5.20
2022-08-21T16:41:25.882Z,5.50
2022-08-21T16:43:58.827Z,4.90
2022-08-21T16:46:34.364Z,5.30
2022-08-21T16:49:08.292Z,5.80
2022-08-21T16:51:41.352Z,8.50
2022-08-21T16:54:14.191Z,7.60
2022-08-21T16:56:48.011Z,7.20
2022-08-21T16:59:21.031Z,4.90
2022-08-21T17:01:55.646Z,5.00
2022-08-21T17:04:28.947Z,4.80
2022-08-21T17:07:01.863Z,4.90
2022-08-21T17:09:34.714Z,7.10
2022-08-21T17:12:09.563Z,5.40
2022-08-21T17:14:42.531Z,6.90
2022-08-21T17:17:16.198Z,7.00
2022-08-21T17:19:49.070Z,5.30
2022-08-21T17:22:22.048Z,5.80
2022-08-21T17:24:55.198Z,4.30
2022-08-21T17:27:29.250Z,5.60
2022-08-21T17:30:02.313Z,4.50
2022-08-21T17:32:35.717Z,4.40
2022-08-21T17:35:10.959Z,5.20
2022-08-21T17:37:44.263Z,10.00
2022-08-21T17:40:18.405Z,3.80
2022-08-21T17:42:52.311Z,8.00
2022-08-21T17:45:26.221Z,4.60
2022-08-21T17:47:59.142Z,4.80
2022-08-21T17:50:32.123Z,4.00
2022-08-21T17:53:05.546Z,4.30
2022-08-21T17:55:38.884Z,4.80
2022-08-21T17:58:14.398Z,3.10
2022-08-21T18:00:48.663Z,4.50
2022-08-21T18:03:25.621Z,5.40
2022-08-21T18:05:58.551Z,4.30
2022-08-21T18:08:33.069Z,3.70
2022-08-21T18:11:07.284Z,3.90
2022-08-21T18:13:43.522Z,7.50
2022-08-21T18:16:19.670Z,6.90
2022-08-21T18:18:53.063Z,2.90
2022-08-21T18:21:26.584Z,4.50
2022-08-21T18:23:59.920Z,2.90
2022-08-21T18:26:36.690Z,3.60
2022-08-21T18:29:11.995Z,5.50
2022-08-21T18:31:46.451Z,7.20
2022-08-21T18:34:26.952Z,5.00
2022-08-21T18:37:00.124Z,4.40
2022-08-21T18:39:36.715Z,3.90
2022-08-21T18:42:15.820Z,6.30
2022-08-21T18:44:51.872Z,4.60
2022-08-21T18:47:35.539Z,4.50
2022-08-21T18:50:11.069Z,3.80
2022-08-21T18:52:52.628Z,9.10
2022-08-21T18:55:40.867Z,4.70
2022-08-21T18:58:15.075Z,4.70
2022-08-21T19:00:51.730Z,6.40
2022-08-21T19:03:27.074Z,4.70
2022-08-21T19:06:00.461Z,3.30
2022-08-21T19:08:33.484Z,5.80
2022-08-21T19:11:06.788Z,4.90
2022-08-21T19:13:39.764Z,6.80
2022-08-21T19:16:13.079Z,5.40
2022-08-21T19:18:46.052Z,5.40
2022-08-21T19:21:19.039Z,4.70
2022-08-21T19:23:53.967Z,3.30
2022-08-21T19:26:29.366Z,4.00
2022-08-21T19:29:07.660Z,6.60
2022-08-21T19:31:45.951Z,4.20
2022-08-21T19:34:23.801Z,4.40
2022-08-21T19:36:57.334Z,5.20
2022-08-21T19:39:31.342Z,5.90
2022-08-21T19:42:04.091Z,15.90
2022-08-21T19:44:39.577Z,2.90
2022-08-21T19:47:20.606Z,5.60
2022-08-21T19:49:59.427Z,7.30
2022-08-21T19:52:35.814Z,6.20
2022-08-21T19:55:10.921Z,6.50
2022-08-21T19:57:44.983Z,5.90
2022-08-21T20:00:19.500Z,43.50
2022-08-21T20:02:52.506Z,14.20
2022-08-21T20:05:25.702Z,8.20
2022-08-21T20:08:20.234Z,9.20
2022-08-21T20:10:54.339Z,7.30
2022-08-21T20:13:27.497Z,6.50
2022-08-21T20:16:00.384Z,7.50
2022-08-21T20:18:35.166Z,6.90
2022-08-21T20:21:11.104Z,9.50
2022-08-21T20:23:49.305Z,8.10
2022-08-21T20:26:22.803Z,8.40
2022-08-21T20:28:56.367Z,8.90
2022-08-21T20:31:29.359Z,6.50
2022-08-21T20:34:02.468Z,7.90
2022-08-21T20:36:35.321Z,6.00
2022-08-21T20:39:11.340Z,14.20
2022-08-21T20:44:46.504Z,7.70
2022-08-21T20:47:19.929Z,8.00
2022-08-21T20:50:00.389Z,8.60
2022-08-21T20:52:37.180Z,12.10
2022-08-21T20:55:15.620Z,10.20
2022-08-21T20:57:55.729Z,6.20
2022-08-21T21:00:33.742Z,9.00
2022-08-21T21:03:17.493Z,9.10
2022-08-21T21:06:01.693Z,8.50
2022-08-21T21:11:16.588Z,11.50
2022-08-21T21:13:53.919Z,8.60
2022-08-21T21:16:30.229Z,9.80
2022-08-21T21:19:10.946Z,13.90
2022-08-21T21:21:51.626Z,11.70
2022-08-21T21:24:35.614Z,8.10
2022-08-21T21:30:22.130Z,20.30
2022-08-21T21:32:55.100Z,40.40
2022-08-21T21:35:36.408Z,11.40
2022-08-21T21:38:18.580Z,8.10
2022-08-21T21:41:02.799Z,11.00
2022-08-21T21:43:54.211Z,11.20
2022-08-21T21:46:46.141Z,8.70
2022-08-21T21:49:49.498Z,8.50
2022-08-21T21:52:47.067Z,7.50
2022-08-21T21:55:52.985Z,7.40
2022-08-21T21:58:59.502Z,10.70
2022-08-21T22:01:40.175Z,9.60
2022-08-21T22:04:28.362Z,12.50
2022-08-21T22:07:10.750Z,11.50
2022-08-21T22:09:50.404Z,11.30
2022-08-21T22:12:42.125Z,12.10
2022-08-21T22:18:20.460Z,11.40
2022-08-21T22:20:58.658Z,11.60
2022-08-21T22:23:39.945Z,9.60
2022-08-21T22:26:18.986Z,8.60
2022-08-21T22:28:53.966Z,9.10
2022-08-21T22:31:31.431Z,11.00
2022-08-21T22:34:18.468Z,11.70
2022-08-21T22:37:00.819Z,11.80
2022-08-21T22:39:38.777Z,7.90
2022-08-21T22:42:15.984Z,14.70
2022-08-21T22:45:01.282Z,13.30
2022-08-21T22:47:39.103Z,11.10
2022-08-21T22:50:29.843Z,11.40
2022-08-21T22:53:06.971Z,9.70
2022-08-21T22:55:44.442Z,10.70
2022-08-21T22:58:28.013Z,12.20
2022-08-21T23:01:05.641Z,8.70
2022-08-21T23:03:48.295Z,9.20
2022-08-21T23:06:44.206Z,14.00
2022-08-21T23:09:33.302Z,9.00
2022-08-21T23:12:33.887Z,9.80
2022-08-21T23:15:13.202Z,10.30
2022-08-21T23:18:12.317Z,14.70
2022-08-21T23:20:57.569Z,10.20
2022-08-21T23:23:35.956Z,10.40
2022-08-21T23:26:22.863Z,6.60
2022-08-21T23:29:28.376Z,10.60
2022-08-21T23:32:07.447Z,11.30
2022-08-21T23:34:52.733Z,14.60
2022-08-21T23:37:51.579Z,11.20
2022-08-21T23:40:50.989Z,11.40
2022-08-21T23:43:47.252Z,14.60
2022-08-21T23:46:45.450Z,11.20
2022-08-21T23:49:32.610Z,10.70
2022-08-21T23:52:22.029Z,10.50
2022-08-21T23:55:16.672Z,7.80
2022-08-21T23:58:04.094Z,10.20
